Time;durP1;ratioP1;P1;durP2;ratioP2;P2;SDS_P1;SDS_P2;PMS_P1;PMS_P2;Temp;Humidity;BMP_temperature;BMP_pressure;BME280_temperature;BME280_humidity;BME280_pressure;Samples;Min_cycle;Max_cycle;Signal;HPM_P1;HPM_P2
2023/10/15 00:01:32;;;;;;;28.43;16.40;;;;;;;-141.97;61.78;47540.22;5015540;28;20181;-82
2023/10/15 00:03:57;;;;;;;29.83;16.93;;;;;;;-141.97;62.26;47467.19;5014561;28;20197;-83
2023/10/15 00:06:23;;;;;;;29.80;17.57;;;;;;;-141.97;62.47;47626.72;5032035;28;20163;-83
2023/10/15 00:08:48;;;;;;;31.50;17.30;;;;;;;-141.97;62.86;47672.84;5032598;28;20252;-83
2023/10/15 00:11:17;;;;;;;30.67;17.70;;;;;;;-141.97;63.15;47447.97;5033583;28;20238;-83
2023/10/15 00:13:46;;;;;;;29.53;17.20;;;;;;;-141.97;62.35;47434.50;5014939;28;20181;-83
2023/10/15 00:16:22;;;;;;;28.47;17.00;;;;;;;-141.97;62.39;47524.84;5033359;28;20291;-83
2023/10/15 00:18:48;;;;;;;31.47;17.63;;;;;;;-141.97;62.63;47432.59;5015251;28;20231;-83
2023/10/15 00:21:14;;;;;;;29.57;17.23;;;;;;;-141.97;62.69;47636.31;5032984;28;20244;-84
2023/10/15 00:23:41;;;;;;;26.67;16.87;;;;;;;-141.97;62.72;47474.88;5015414;28;20241;-84
2023/10/15 00:26:07;;;;;;;27.27;16.03;;;;;;;-141.97;62.28;47422.97;5014609;28;20193;-84
2023/10/15 00:28:33;;;;;;;31.43;16.50;;;;;;;-141.97;62.95;47392.22;5014629;28;20567;-83
2023/10/15 00:31:00;;;;;;;31.07;17.40;;;;;;;-141.97;63.63;47428.75;5031289;28;20174;-81
2023/10/15 00:33:26;;;;;;;31.77;17.07;;;;;;;-141.97;63.75;47490.25;5032694;28;20162;-81
2023/10/15 00:35:55;;;;;;;27.23;17.00;;;;;;;-141.97;62.74;47482.56;5032240;28;20177;-81
2023/10/15 00:38:20;;;;;;;31.10;17.33;;;;;;;-141.97;63.20;47517.16;5032383;28;20211;-81
2023/10/15 00:40:51;;;;;;;30.20;17.10;;;;;;;-141.97;63.73;47572.91;5033410;28;20201;-81
2023/10/15 00:43:17;;;;;;;30.20;17.07;;;;;;;-141.97;64.03;47542.16;5058088;28;20671;-82
2023/10/15 00:45:45;;;;;;;32.47;17.20;;;;;;;-141.97;63.38;47538.28;5055501;28;20621;-83
2023/10/15 00:51:08;;;;;;;28.53;17.67;;;;;;;-141.97;63.82;47426.81;5049184;28;20227;-82
2023/10/15 00:53:34;;;;;;;29.47;16.93;;;;;;;-141.97;63.83;47544.06;5039067;28;20164;-83
2023/10/15 00:56:04;;;;;;;28.10;17.33;;;;;;;-141.97;64.21;47490.25;5022419;28;20178;-83
2023/10/15 01:04:09;;;;;;;30.50;17.70;;;;;;;-141.97;65.41;47411.44;5032495;28;20153;-81
2023/10/15 01:06:37;;;;;;;29.57;17.33;;;;;;;-141.97;65.32;47634.41;5014013;28;20245;-81
2023/10/15 01:09:32;;;;;;;30.07;16.97;;;;;;;-141.97;65.38;47490.25;5014393;28;20202;-81
2023/10/15 01:11:58;;;;;;;29.63;16.63;;;;;;;-141.97;65.09;47488.31;5013673;28;20232;-82
2023/10/15 01:14:31;;;;;;;28.17;17.57;;;;;;;-141.97;65.00;47530.59;5031841;28;20290;-83
2023/10/15 01:16:57;;;;;;;29.40;16.53;;;;;;;-141.97;64.78;47488.31;5014047;28;20188;-82
2023/10/15 01:19:36;;;;;;;31.73;16.70;;;;;;;-141.97;65.08;47601.72;5013873;28;20190;-83
2023/10/15 01:22:10;;;;;;;29.20;17.27;;;;;;;-141.97;64.94;47507.53;5013455;28;20316;-83
2023/10/15 01:24:41;;;;;;;26.77;16.90;;;;;;;-141.97;64.59;47569.06;5012709;28;20631;-83
2023/10/15 01:27:09;;;;;;;26.20;16.10;;;;;;;-141.97;64.40;47499.84;5031784;28;20177;-83
2023/10/15 01:29:45;;;;;;;31.57;16.07;;;;;;;-141.97;64.55;47638.25;5013701;28;20169;-83
2023/10/15 01:32:22;;;;;;;29.43;16.30;;;;;;;-141.97;64.66;47486.41;5013816;28;20613;-82
2023/10/15 01:34:52;;;;;;;26.70;16.67;;;;;;;-141.97;64.99;47551.75;5031459;28;20687;-82
2023/10/15 01:39:48;;;;;;;25.20;16.40;;;;;;;-141.97;65.02;47670.91;5031891;28;20213;-82
2023/10/15 01:44:54;;;;;;;24.17;15.87;;;;;;;-141.97;64.57;47434.50;5030948;28;20174;-82
2023/10/15 01:47:27;;;;;;;28.57;16.67;;;;;;;-141.97;64.57;47488.31;5031136;28;20165;-82
2023/10/15 01:49:56;;;;;;;29.77;16.77;;;;;;;-141.97;64.72;47494.09;5013428;28;20253;-82
2023/10/15 01:52:29;;;;;;;32.20;16.90;;;;;;;-141.97;65.03;47567.13;5031378;28;20181;-82
2023/10/15 01:54:55;;;;;;;27.80;16.53;;;;;;;-141.97;64.62;47480.63;5012977;28;20190;-82
2023/10/15 01:57:22;;;;;;;48.20;29.23;;;;;;;-141.97;63.47;47592.13;5003944;28;20256;-82
2023/10/15 01:59:47;;;;;;;48.20;27.13;;;;;;;-141.97;62.71;47496.00;5031359;28;20236;-82
2023/10/15 02:02:15;;;;;;;46.47;25.80;;;;;;;-141.97;62.52;47447.97;5031718;28;20169;-81
2023/10/15 02:04:47;;;;;;;44.60;24.70;;;;;;;-141.97;62.41;47474.88;5014108;28;20254;-81
2023/10/15 02:07:16;;;;;;;48.47;28.20;;;;;;;-141.97;62.30;47651.69;5012757;28;20709;-82
2023/10/15 02:09:45;;;;;;;44.93;27.03;;;;;;;-141.97;62.61;47567.13;5013405;28;20170;-82
2023/10/15 02:12:18;;;;;;;38.40;23.97;;;;;;;-141.97;62.52;47557.53;5030932;28;20166;-82
2023/10/15 02:14:44;;;;;;;39.27;19.10;;;;;;;-141.97;62.10;47590.19;5013329;28;20251;-82
2023/10/15 02:17:18;;;;;;;29.57;17.73;;;;;;;-141.97;62.81;47461.41;5030750;28;20248;-84
2023/10/15 02:19:44;;;;;;;31.90;17.60;;;;;;;-141.97;63.19;47480.63;5013181;28;20190;-82
2023/10/15 02:22:14;;;;;;;31.43;18.70;;;;;;;-141.97;64.42;47515.22;5012835;28;20534;-83
2023/10/15 02:24:46;;;;;;;32.23;20.10;;;;;;;-141.97;64.78;47553.69;5030686;28;20192;-83
2023/10/15 02:27:27;;;;;;;33.67;21.73;;;;;;;-141.97;66.12;47521.00;5030282;28;20169;-83
2023/10/15 02:29:53;;;;;;;39.60;25.23;;;;;;;-141.97;66.16;47645.94;5030715;28;20186;-81
2023/10/15 02:34:51;;;;;;;33.10;21.33;;;;;;;-141.97;65.24;47488.31;5030789;28;20633;-81
2023/10/15 02:37:26;;;;;;;26.60;17.90;;;;;;;-141.97;65.76;47544.06;5012402;28;20174;-81
2023/10/15 02:39:51;;;;;;;27.73;17.67;;;;;;;-141.97;65.96;47576.75;5029117;28;20239;-81
2023/10/15 02:42:21;;;;;;;32.67;19.00;;;;;;;-141.97;66.59;47563.28;5036047;28;20668;-81
2023/10/15 02:44:53;;;;;;;28.40;17.87;;;;;;;-141.97;66.53;47526.75;5013365;28;20193;-81
2023/10/15 02:50:10;;;;;;;27.13;15.67;;;;;;;-141.97;65.64;47540.22;5012126;28;20199;-80
2023/10/15 02:52:35;;;;;;;24.63;16.23;;;;;;;-141.97;65.58;47434.50;5012478;28;20214;-80
2023/10/15 02:55:09;;;;;;;26.47;16.80;;;;;;;-141.97;65.70;47607.50;5011930;28;20229;-81
2023/10/15 02:57:40;;;;;;;26.20;16.57;;;;;;;-141.97;66.02;47546.00;5002244;28;20249;-82
2023/10/15 03:00:18;;;;;;;24.50;15.40;;;;;;;-141.97;65.80;47563.28;5012315;28;20202;-80
2023/10/15 03:02:45;;;;;;;27.27;15.67;;;;;;;-141.97;65.84;47513.31;5012497;28;20177;-80
2023/10/15 03:05:13;;;;;;;26.10;14.60;;;;;;;-141.97;65.93;47578.66;5011723;28;20170;-80
2023/10/15 03:07:42;;;;;;;24.87;14.57;;;;;;;-141.97;66.10;47567.13;5011886;28;20225;-80
2023/10/15 03:10:13;;;;;;;25.90;15.23;;;;;;;-141.97;66.83;47467.19;5011906;28;20174;-82
2023/10/15 03:12:43;;;;;;;29.00;14.67;;;;;;;-141.97;68.01;47457.56;4995916;28;20584;-82
2023/10/15 03:15:14;;;;;;;26.57;15.13;;;;;;;-141.97;67.91;47553.69;4995099;28;20201;-82
2023/10/15 03:17:43;;;;;;;22.50;14.90;;;;;;;-141.97;68.57;47619.03;5012469;28;20686;-81
2023/10/15 03:20:39;;;;;;;36.00;16.67;;;;;;;-141.97;69.37;47549.84;5011839;28;20232;-80
2023/10/15 03:22:59;;;;;;;28.17;15.50;;;;;;;-141.97;70.23;47451.81;5024490;28;20521;-80
2023/10/15 03:25:26;;;;;;;27.33;15.23;;;;;;;-141.97;70.88;47480.63;5026365;28;20218;-81
2023/10/15 03:27:54;;;;;;;25.63;15.70;;;;;;;-141.97;70.55;47524.84;5014372;28;20969;-81
2023/10/15 03:30:23;;;;;;;28.87;15.43;;;;;;;-141.97;70.27;47472.94;5014362;28;20155;-80
2023/10/15 03:32:52;;;;;;;27.10;14.43;;;;;;;-141.97;69.52;47509.47;4996618;28;20301;-80
2023/10/15 03:35:33;;;;;;;25.53;15.03;;;;;;;-141.97;69.08;47451.81;4996671;28;20182;-79
2023/10/15 03:38:04;;;;;;;25.03;15.37;;;;;;;-141.97;69.08;47488.31;5033582;28;20162;-80
2023/10/15 03:40:30;;;;;;;26.63;14.70;;;;;;;-141.97;68.93;47532.53;5033759;28;20190;-81
2023/10/15 03:43:15;;;;;;;27.03;14.50;;;;;;;-141.97;69.49;47511.38;5035125;28;20221;-81
2023/10/15 03:45:53;;;;;;;28.07;15.40;;;;;;;-141.97;70.38;47669.00;5049198;28;20178;-82
2023/10/15 03:48:29;;;;;;;25.80;14.80;;;;;;;-141.97;71.28;47555.59;5033885;28;20228;-81
2023/10/15 03:50:55;;;;;;;27.23;15.03;;;;;;;-141.97;71.41;47569.06;5015670;28;20173;-82
2023/10/15 03:53:35;;;;;;;23.33;15.10;;;;;;;-141.97;71.82;47555.59;5034205;28;20175;-82
2023/10/15 03:56:03;;;;;;;30.67;14.50;;;;;;;-141.97;72.71;47553.69;5015184;28;20995;-82
2023/10/15 03:58:31;;;;;;;24.47;15.23;;;;;;;-141.97;72.32;47647.84;5005092;28;20261;-82
2023/10/15 04:01:20;;;;;;;25.37;14.43;;;;;;;-141.97;71.85;47476.78;5028581;28;20290;-78
2023/10/15 04:03:48;;;;;;;26.87;15.20;;;;;;;-141.97;71.87;47496.00;5022094;28;20175;-79
2023/10/15 04:06:16;;;;;;;27.30;16.10;;;;;;;-141.97;72.27;47572.91;5023335;28;20184;-79
2023/10/15 04:11:42;;;;;;;25.43;14.97;;;;;;;-141.97;71.36;47553.69;5023533;28;20822;-79
2023/10/15 04:14:21;;;;;;;27.17;14.63;;;;;;;-141.97;70.85;47530.59;5023478;28;20177;-80
2023/10/15 04:16:46;;;;;;;23.90;14.57;;;;;;;-141.97;71.11;47588.28;5022741;28;20605;-79
2023/10/15 04:19:17;;;;;;;28.00;14.70;;;;;;;-141.97;71.62;47515.22;5024079;28;20211;-80
2023/10/15 04:21:43;;;;;;;28.63;14.80;;;;;;;-141.97;71.71;47515.22;5023742;28;20485;-79
2023/10/15 04:24:09;;;;;;;26.03;14.83;;;;;;;-141.97;71.29;47534.44;5021310;28;20181;-79
2023/10/15 04:26:42;;;;;;;27.10;15.83;;;;;;;-141.97;71.08;47530.59;5003999;28;20173;-79
2023/10/15 04:29:17;;;;;;;26.70;15.20;;;;;;;-141.97;70.89;47499.84;5005469;28;20182;-80
2023/10/15 04:32:10;;;;;;;26.90;15.20;;;;;;;-141.97;70.50;47519.06;5023586;28;20672;-80
2023/10/15 04:34:38;;;;;;;26.37;14.80;;;;;;;-141.97;70.62;47561.38;5005090;28;20594;-80
2023/10/15 04:37:10;;;;;;;25.87;15.07;;;;;;;-141.97;71.13;47461.41;5023287;28;20179;-79
2023/10/15 04:39:47;;;;;;;22.87;15.17;;;;;;;-141.97;71.54;47469.09;5021742;28;20186;-79
2023/10/15 04:42:20;;;;;;;30.73;15.50;;;;;;;-141.97;71.19;47542.16;5024033;28;20724;-80
2023/10/15 04:44:46;;;;;;;25.17;14.80;;;;;;;-141.97;70.85;47499.84;5020978;28;20174;-81
2023/10/15 04:47:12;;;;;;;23.03;14.70;;;;;;;-141.97;70.80;47569.06;5023469;28;20166;-80
2023/10/15 04:49:38;;;;;;;24.40;14.67;;;;;;;-141.97;71.19;47599.81;5020155;28;20225;-80
2023/10/15 04:52:13;;;;;;;26.27;14.87;;;;;;;-141.97;71.25;47613.25;5025580;28;20174;-81
2023/10/15 04:54:39;;;;;;;30.30;15.40;;;;;;;-141.97;70.95;47551.75;5017484;28;20175;-80
2023/10/15 04:57:05;;;;;;;25.60;15.27;;;;;;;-141.97;70.76;47544.06;5004526;28;20625;-80
2023/10/15 04:59:30;;;;;;;23.53;14.77;;;;;;;-141.97;70.97;47549.84;4994356;28;20221;-80
2023/10/15 05:01:56;;;;;;;27.50;15.60;;;;;;;-141.97;70.76;47553.69;5022922;28;20649;-80
2023/10/15 05:04:22;;;;;;;29.50;15.37;;;;;;;-141.97;70.69;47519.06;4999004;28;20195;-83
2023/10/15 05:06:48;;;;;;;24.87;15.43;;;;;;;-141.97;70.64;47590.19;5022316;28;20669;-79
2023/10/15 05:09:24;;;;;;;25.47;15.27;;;;;;;-141.97;70.85;47557.53;5031655;28;20165;-79
2023/10/15 05:11:53;;;;;;;27.57;15.80;;;;;;;-141.97;70.13;47513.31;5030321;28;20166;-79
2023/10/15 05:14:18;;;;;;;26.30;15.63;;;;;;;-141.97;69.99;47547.91;5013670;28;20560;-79
2023/10/15 05:16:47;;;;;;;26.93;15.93;;;;;;;-141.97;69.53;47557.53;5031285;28;20252;-79
2023/10/15 05:19:19;;;;;;;24.70;15.43;;;;;;;-141.97;68.81;47547.91;5031218;28;20170;-78
2023/10/15 05:21:46;;;;;;;23.37;14.93;;;;;;;-141.97;68.63;47672.84;5031673;28;20272;-80
2023/10/15 05:24:18;;;;;;;24.57;15.80;;;;;;;-141.97;68.72;47584.44;5013852;28;20185;-80
2023/10/15 05:26:46;;;;;;;26.57;15.27;;;;;;;-141.97;69.37;47515.22;5031205;28;20605;-82
2023/10/15 05:29:13;;;;;;;29.23;16.00;;;;;;;-141.97;68.94;47572.91;5024406;28;20213;-83
2023/10/15 05:31:40;;;;;;;22.20;15.57;;;;;;;-141.97;69.04;47476.78;5051739;28;20157;-82
2023/10/15 05:34:07;;;;;;;25.47;15.50;;;;;;;-141.97;69.16;47555.59;5033834;28;20274;-81
2023/10/15 05:36:33;;;;;;;24.93;15.30;;;;;;;-141.97;69.37;47669.00;5043221;28;20198;-81
2023/10/15 05:38:59;;;;;;;28.17;15.80;;;;;;;-141.97;69.82;47665.16;5031676;28;20253;-82
2023/10/15 05:41:24;;;;;;;38.43;20.10;;;;;;;-141.97;70.32;47538.28;5031176;28;20177;-83
2023/10/15 05:43:50;;;;;;;85.73;44.47;;;;;;;-141.97;69.87;47576.75;5013806;28;20174;-82
2023/10/15 05:46:15;;;;;;;63.03;36.50;;;;;;;-141.97;69.81;47536.38;5030988;28;20180;-82
2023/10/15 05:48:40;;;;;;;29.40;18.63;;;;;;;-141.97;69.75;47561.38;5030955;28;20205;-82
2023/10/15 05:51:09;;;;;;;25.50;16.53;;;;;;;-141.97;69.52;47572.91;5013367;28;20248;-81
2023/10/15 05:53:35;;;;;;;29.00;16.93;;;;;;;-141.97;68.94;47519.06;5035366;28;20162;-81
2023/10/15 05:56:00;;;;;;;28.03;16.60;;;;;;;-141.97;68.88;47476.78;5051730;28;20158;-85
2023/10/15 05:58:26;;;;;;;22.53;14.87;;;;;;;-141.97;68.94;47549.84;5006797;28;20690;-82
2023/10/15 06:00:51;;;;;;;26.20;16.57;;;;;;;-141.97;68.95;47446.03;5030373;28;20919;-83
2023/10/15 06:03:17;;;;;;;25.80;15.00;;;;;;;-141.97;68.54;47503.69;5030819;28;20181;-83
2023/10/15 06:05:42;;;;;;;25.47;15.07;;;;;;;-141.97;68.57;47509.47;5032110;28;20223;-83
2023/10/15 06:08:08;;;;;;;21.60;14.30;;;;;;;-141.97;67.45;47620.94;5012694;28;20261;-83
2023/10/15 06:10:34;;;;;;;32.13;15.10;;;;;;;-141.97;67.04;47718.97;5030773;28;20514;-84
2023/10/15 06:13:00;;;;;;;35.87;22.07;;;;;;;-141.97;66.67;47519.06;5031224;28;20252;-84
2023/10/15 06:15:26;;;;;;;27.20;18.07;;;;;;;-141.97;66.39;47563.28;5031076;28;20154;-83
2023/10/15 06:17:51;;;;;;;26.40;14.30;;;;;;;-141.97;66.33;47549.84;5032983;28;20654;-83
2023/10/15 06:20:17;;;;;;;37.77;23.60;;;;;;;-141.97;65.11;47534.44;5031712;28;20193;-83
2023/10/15 06:22:44;;;;;;;27.47;15.47;;;;;;;-141.97;64.09;47588.28;5030526;28;20187;-83
2023/10/15 06:25:12;;;;;;;25.10;13.63;;;;;;;-141.97;63.10;47465.25;5030328;28;20166;-84
2023/10/15 06:27:38;;;;;;;28.23;15.37;;;;;;;-141.97;62.67;47597.88;5012328;28;20793;-83
2023/10/15 06:30:05;;;;;;;30.50;15.90;;;;;;;-141.97;61.77;47582.50;5030245;28;20765;-83
2023/10/15 06:32:31;;;;;;;24.73;14.90;;;;;;;-141.97;60.72;47603.66;5030112;28;20650;-82
2023/10/15 06:34:57;;;;;;;33.83;17.00;;;;;;;-141.97;60.18;47557.53;5030928;28;20190;-82
2023/10/15 06:37:22;;;;;;;32.23;15.80;;;;;;;-141.97;59.39;47603.66;5012675;28;20217;-83
2023/10/15 06:39:47;;;;;;;28.23;14.33;;;;;;;-141.97;58.80;47565.22;5012398;28;20221;-83
2023/10/15 06:42:13;;;;;;;40.00;22.40;;;;;;;-141.97;57.77;47590.19;5044203;28;20204;-83
2023/10/15 06:44:38;;;;;;;32.03;17.33;;;;;;;-141.97;56.87;47480.63;5050585;28;20681;-84
2023/10/15 06:47:03;;;;;;;27.80;13.10;;;;;;;-141.97;55.88;47534.44;5042059;28;20240;-83
2023/10/15 06:49:29;;;;;;;28.80;13.70;;;;;;;-141.97;55.43;47565.22;5014017;28;20178;-82
2023/10/15 06:51:54;;;;;;;21.27;13.23;;;;;;;-141.97;54.83;47561.38;5012502;28;20201;-82
2023/10/15 06:54:20;;;;;;;26.07;13.77;;;;;;;-141.97;53.99;47620.94;5030744;28;20232;-83
2023/10/15 06:56:45;;;;;;;25.13;13.40;;;;;;;-141.97;54.08;47511.38;5012676;28;20169;-84
2023/10/15 06:59:11;;;;;;;22.90;12.93;;;;;;;-141.97;53.90;47457.56;5020279;28;20682;-83
2023/10/15 07:01:38;;;;;;;20.10;12.40;;;;;;;-141.97;53.27;47497.94;5029914;28;20186;-83
2023/10/15 07:04:07;;;;;;;24.83;12.53;;;;;;;-141.97;52.80;47532.53;5030383;28;20162;-83
2023/10/15 07:06:33;;;;;;;17.20;11.57;;;;;;;-141.97;51.87;47540.22;5029870;28;20224;-83
2023/10/15 07:08:59;;;;;;;18.33;11.90;;;;;;;-141.97;51.19;47509.47;5030570;28;20234;-82
2023/10/15 07:11:26;;;;;;;30.90;11.30;;;;;;;-141.97;50.18;47507.53;5030005;28;20912;-82
2023/10/15 07:13:52;;;;;;;22.33;11.40;;;;;;;-141.97;49.64;47530.59;5030511;28;20155;-83
2023/10/15 07:16:19;;;;;;;25.30;12.40;;;;;;;-141.97;49.01;47486.41;5000148;28;20239;-82
2023/10/15 07:18:45;;;;;;;23.20;12.00;;;;;;;-141.97;48.30;47530.59;5030334;28;20164;-84
2023/10/15 07:21:11;;;;;;;17.37;11.27;;;;;;;-141.97;48.27;47661.31;5012336;28;20193;-83
2023/10/15 07:23:37;;;;;;;22.00;11.17;;;;;;;-141.97;48.82;47615.19;5011006;28;20239;-83
2023/10/15 07:26:03;;;;;;;21.97;10.27;;;;;;;-141.97;48.76;47422.97;5030226;28;20174;-84
2023/10/15 07:28:29;;;;;;;20.93;10.43;;;;;;;-141.97;47.75;47465.25;5029678;28;20170;-83
2023/10/15 07:30:55;;;;;;;20.83;10.53;;;;;;;-141.97;46.88;47522.91;5028649;28;20561;-85
2023/10/15 07:33:21;;;;;;;21.40;10.23;;;;;;;-141.97;46.13;47522.91;5029946;28;20155;-84
2023/10/15 07:35:48;;;;;;;15.33;9.90;;;;;;;-141.97;45.76;47511.38;5031386;28;20537;-84
2023/10/15 07:38:14;;;;;;;18.40;9.67;;;;;;;-141.97;45.15;47478.72;5033523;28;20174;-83
2023/10/15 07:40:40;;;;;;;18.13;9.57;;;;;;;-141.97;44.76;47446.03;5034147;28;20193;-83
2023/10/15 07:43:08;;;;;;;15.57;9.53;;;;;;;-141.97;45.14;47440.28;5037971;28;20256;-84
2023/10/15 07:45:34;;;;;;;17.37;9.50;;;;;;;-141.97;45.05;47690.16;5015578;28;20190;-83
2023/10/15 07:48:02;;;;;;;20.80;9.50;;;;;;;-141.97;44.85;47519.06;5015571;28;20257;-84
2023/10/15 07:50:29;;;;;;;18.27;10.13;;;;;;;-141.97;44.20;47388.38;5033528;28;20666;-85
2023/10/15 07:52:55;;;;;;;16.13;10.00;;;;;;;-141.97;43.43;47505.63;5035689;28;20264;-84
2023/10/15 07:55:26;;;;;;;14.17;9.87;;;;;;;-141.97;43.18;47465.25;5041484;28;20619;-84
2023/10/15 07:57:51;;;;;;;17.30;9.90;;;;;;;-141.97;42.69;47636.31;5035406;28;20261;-84
2023/10/15 08:00:23;;;;;;;16.27;9.60;;;;;;;-141.97;42.96;47449.88;5022459;28;20324;-83
2023/10/15 08:02:52;;;;;;;19.00;9.83;;;;;;;-141.97;42.88;47649.78;5032256;28;20248;-83
2023/10/15 08:05:18;;;;;;;20.03;10.23;;;;;;;-141.97;43.03;47595.97;5033279;28;20165;-83
2023/10/15 08:07:43;;;;;;;16.80;9.83;;;;;;;-141.97;42.53;47461.41;5033126;28;20222;-84
2023/10/15 08:10:10;;;;;;;19.80;10.13;;;;;;;-141.97;41.77;47488.31;5033249;28;20322;-83
2023/10/15 08:12:36;;;;;;;15.07;9.63;;;;;;;-141.97;41.70;47515.22;5025991;28;20360;-83
2023/10/15 08:15:01;;;;;;;17.27;9.63;;;;;;;-141.97;41.99;47467.19;5032139;28;20185;-83
2023/10/15 08:17:29;;;;;;;13.00;9.43;;;;;;;-141.97;41.49;47488.31;5014681;28;20178;-84
2023/10/15 08:19:55;;;;;;;14.43;9.77;;;;;;;-141.97;41.07;47449.88;5012942;28;20474;-84
2023/10/15 08:22:20;;;;;;;15.37;9.80;;;;;;;-141.97;40.05;47449.88;4996738;28;20236;-83
2023/10/15 08:24:46;;;;;;;14.17;9.33;;;;;;;-141.97;39.91;47505.63;5029651;28;20192;-82
2023/10/15 08:27:13;;;;;;;16.90;9.27;;;;;;;-141.97;40.38;47357.63;5035245;28;20168;-82
2023/10/15 08:29:41;;;;;;;15.30;8.70;;;;;;;-141.97;40.20;47484.47;5027385;28;20186;-83
2023/10/15 08:32:09;;;;;;;16.07;9.47;;;;;;;-141.97;39.73;47459.50;4999153;28;20186;-83
2023/10/15 08:34:34;;;;;;;15.57;9.50;;;;;;;-141.97;39.47;47467.19;5026445;28;20170;-84
2023/10/15 08:36:59;;;;;;;17.00;10.03;;;;;;;-141.97;39.05;47649.78;5029377;28;20193;-85
2023/10/15 08:39:27;;;;;;;17.43;9.43;;;;;;;-141.97;39.00;47692.06;5012867;28;20187;-84
2023/10/15 08:41:54;;;;;;;17.57;10.17;;;;;;;-141.97;39.15;47357.63;4995422;28;20170;-84
2023/10/15 08:44:20;;;;;;;15.83;10.90;;;;;;;-141.97;39.75;47467.19;5019230;28;20665;-83
2023/10/15 08:46:48;;;;;;;15.60;9.77;;;;;;;-141.97;38.93;47444.13;5013057;28;20213;-82
2023/10/15 08:49:15;;;;;;;15.00;9.90;;;;;;;-141.97;39.50;47457.56;5008168;28;20963;-83
2023/10/15 08:51:42;;;;;;;16.97;10.23;;;;;;;-141.97;39.00;47476.78;5053857;28;20187;-85
2023/10/15 08:54:11;;;;;;;17.57;10.17;;;;;;;-141.97;38.17;47622.88;5041168;28;20177;-84
2023/10/15 08:56:37;;;;;;;14.93;9.70;;;;;;;-141.97;37.51;47453.72;5032232;28;20598;-83
2023/10/15 08:59:04;;;;;;;15.30;9.70;;;;;;;-141.97;38.07;47611.34;5004114;28;20752;-82
2023/10/15 09:01:32;;;;;;;14.87;9.27;;;;;;;-141.97;37.55;47446.03;5021143;28;20184;-83
2023/10/15 09:03:57;;;;;;;20.53;10.00;;;;;;;-141.97;37.26;47463.34;5050141;28;20582;-81
2023/10/15 09:06:23;;;;;;;18.37;10.23;;;;;;;-141.97;36.78;47421.06;5031436;28;20246;-83
2023/10/15 09:08:51;;;;;;;16.10;10.20;;;;;;;-141.97;36.93;47415.28;5030239;28;20182;-83
2023/10/15 09:11:17;;;;;;;15.00;10.73;;;;;;;-141.97;37.39;47324.97;5032011;28;20643;-83
2023/10/15 09:13:49;;;;;;;15.93;10.07;;;;;;;-141.97;36.60;47569.06;5032606;28;20300;-83
2023/10/15 09:16:15;;;;;;;15.77;9.77;;;;;;;-141.97;36.51;47373.00;5031683;28;20581;-84
2023/10/15 09:18:43;;;;;;;16.67;9.90;;;;;;;-141.97;36.71;47469.09;5032115;28;20249;-84
2023/10/15 09:21:09;;;;;;;15.50;8.93;;;;;;;-141.97;35.95;47313.44;5031801;28;20198;-84
2023/10/15 09:23:37;;;;;;;13.50;8.80;;;;;;;-141.97;36.76;47465.25;5002236;28;20196;-83
2023/10/15 09:26:05;;;;;;;14.70;9.70;;;;;;;-141.97;36.55;47394.16;5032008;28;20178;-83
2023/10/15 09:28:32;;;;;;;17.07;11.07;;;;;;;-141.97;35.48;47376.84;5034399;28;20170;-83
2023/10/15 09:31:09;;;;;;;15.70;9.85;;;;;;;-141.97;35.37;47419.13;5050833;28;20162;-83
2023/10/15 09:33:36;;;;;;;16.45;9.23;;;;;;;-141.97;35.08;47411.44;5032645;28;20618;-83
2023/10/15 09:36:03;;;;;;;14.23;8.65;;;;;;;-141.97;35.09;47415.28;5013298;28;21128;-83
2023/10/15 09:38:31;;;;;;;12.20;8.82;;;;;;;-141.97;34.50;47417.22;5031548;28;20621;-84
2023/10/15 09:41:00;;;;;;;13.70;9.43;;;;;;;-141.97;34.21;47382.63;5032517;28;20223;-85
2023/10/15 09:43:26;;;;;;;16.10;9.25;;;;;;;-141.97;34.23;47315.34;5031027;28;20167;-85
2023/10/15 09:45:54;;;;;;;15.15;8.77;;;;;;;-141.97;33.93;47411.44;5030305;28;20186;-85
2023/10/15 09:48:26;;;;;;;16.15;8.98;;;;;;;-141.97;33.69;47380.69;5012623;28;20661;-85
2023/10/15 09:50:59;;;;;;;13.73;8.73;;;;;;;-141.97;33.73;47326.88;5005922;28;20183;-85
2023/10/15 09:53:25;;;;;;;14.57;9.23;;;;;;;-141.97;33.72;47384.53;5012633;28;20611;-84
2023/10/15 09:55:51;;;;;;;16.67;9.10;;;;;;;-141.97;33.67;47401.84;5031409;28;20253;-85
2023/10/15 09:58:17;;;;;;;15.85;9.25;;;;;;;-141.97;33.52;47398.00;5012596;28;20612;-83
2023/10/15 10:03:47;;;;;;;14.45;8.90;;;;;;;-141.97;34.22;47401.84;5031061;28;20172;-85
2023/10/15 10:06:31;;;;;;;15.50;9.40;;;;;;;-141.97;34.42;47419.13;5014541;28;20257;-84
2023/10/15 10:09:21;;;;;;;16.05;9.48;;;;;;;-141.97;33.73;47363.41;5045116;28;20186;-84
2023/10/15 10:11:51;;;;;;;12.55;9.02;;;;;;;-141.97;33.46;47278.84;5021368;28;20237;-84
2023/10/15 10:14:16;;;;;;;15.65;9.20;;;;;;;-141.97;33.35;47392.22;5029668;28;20528;-83
2023/10/15 10:16:42;;;;;;;16.83;9.27;;;;;;;-141.97;33.52;47415.28;5035741;28;20176;-85
2023/10/15 10:19:09;;;;;;;16.10;9.25;;;;;;;-141.97;33.98;47390.31;5030918;28;20711;-86
2023/10/15 10:21:35;;;;;;;14.63;8.98;;;;;;;-141.97;33.43;47534.44;5030780;28;20272;-86
2023/10/15 10:24:02;;;;;;;11.82;9.10;;;;;;;-141.97;33.43;47373.00;5031032;28;20178;-83
2023/10/15 10:26:32;;;;;;;16.77;9.13;;;;;;;-141.97;33.14;47392.22;5030842;28;20197;-84
2023/10/15 10:28:59;;;;;;;18.52;9.00;;;;;;;-141.97;33.15;47390.31;5031573;28;20181;-83
2023/10/15 10:31:29;;;;;;;13.85;8.93;;;;;;;-141.97;33.11;47405.69;5014686;28;20225;-84
2023/10/15 10:33:56;;;;;;;13.25;8.95;;;;;;;-141.97;33.03;47344.19;5032573;28;20159;-85
2023/10/15 10:36:27;;;;;;;22.00;9.13;;;;;;;-141.97;32.85;47411.44;5030994;28;20234;-83
2023/10/15 10:39:00;;;;;;;18.65;9.48;;;;;;;-141.97;32.60;47369.16;5030865;28;20224;-84
2023/10/15 10:41:37;;;;;;;18.77;9.32;;;;;;;-141.97;32.37;47363.41;5030923;28;20285;-85
2023/10/15 10:44:04;;;;;;;15.63;8.98;;;;;;;-141.97;32.51;47311.50;5011717;28;20178;-84
2023/10/15 10:46:29;;;;;;;16.00;8.95;;;;;;;-141.97;32.22;47401.84;5010831;28;20171;-82
2023/10/15 10:49:03;;;;;;;16.33;8.75;;;;;;;-141.97;32.25;47422.97;4993185;28;20292;-85
2023/10/15 10:51:32;;;;;;;13.93;8.60;;;;;;;-141.97;32.14;47369.16;5011012;28;20166;-84
2023/10/15 10:53:57;;;;;;;13.98;8.65;;;;;;;-141.97;32.40;47378.78;5011152;28;20159;-84
2023/10/15 10:56:25;;;;;;;18.73;8.63;;;;;;;-141.97;32.07;47351.88;4993797;28;20170;-83
2023/10/15 10:58:57;;;;;;;12.77;8.60;;;;;;;-141.97;31.80;47348.03;5012633;28;20226;-82
2023/10/15 11:01:22;;;;;;;12.63;8.18;;;;;;;-141.97;31.68;47353.78;5026404;28;20296;-84
2023/10/15 11:03:48;;;;;;;15.10;8.23;;;;;;;-141.97;31.35;47346.09;4996200;28;20238;-84
2023/10/15 11:06:15;;;;;;;12.35;8.90;;;;;;;-141.97;31.70;47365.31;5012670;28;20552;-83
2023/10/15 11:08:41;;;;;;;19.23;9.32;;;;;;;-141.97;31.51;47399.91;4999339;28;20232;-84
2023/10/15 11:11:09;;;;;;;17.33;8.88;;;;;;;-141.97;31.44;47392.22;5035238;28;20172;-84
2023/10/15 11:13:34;;;;;;;12.55;8.15;;;;;;;-141.97;31.24;47478.72;5034576;28;20161;-83
2023/10/15 11:16:00;;;;;;;14.43;8.82;;;;;;;-141.97;31.00;47357.63;5051992;28;20173;-83
2023/10/15 11:18:30;;;;;;;11.63;8.02;;;;;;;-141.97;30.93;47374.94;5036134;28;20168;-83
2023/10/15 11:20:56;;;;;;;14.20;8.18;;;;;;;-141.97;30.95;47534.44;5040042;28;20199;-84
2023/10/15 11:23:26;;;;;;;20.60;8.63;;;;;;;-141.97;30.88;47394.16;5034728;28;20171;-84
2023/10/15 11:25:54;;;;;;;15.57;8.55;;;;;;;-141.97;30.93;47330.72;5017023;28;20172;-83
2023/10/15 11:28:20;;;;;;;16.67;8.63;;;;;;;-141.97;30.89;47309.59;5018802;28;20188;-84
2023/10/15 11:30:45;;;;;;;15.00;8.65;;;;;;;-141.97;30.65;47611.34;5038760;28;20169;-84
2023/10/15 11:33:12;;;;;;;16.85;12.75;;;;;;;-141.97;30.53;47394.16;5030785;28;20686;-83
2023/10/15 11:35:38;;;;;;;20.73;11.38;;;;;;;-141.97;30.62;47303.81;4993297;28;20178;-82